Terminal Aerodrome Forecast
Issued by NWS

Home | Current Version | Previous Version | Graphics & Text | Print | Product List | Glossary On
Versions: 1 2 3 4 5 6 7 8 9 10 11 12 13
000
FTUS43 KABR 271730
TAFPIR
TAF
KPIR 271730Z 2718/2818 24009KT P6SM SKC
     FM271900 27010KT P6SM SKC
     FM272300 32012G20KT P6SM SKC
     FM280700 33010KT P6SM SKC
     FM281700 34015G22KT P6SM SKC=

USA.gov is the U.S. government's official web portal to all federal, state and local government web resources and services.